Time;durP1;ratioP1;P1;durP2;ratioP2;P2;SDS_P1;SDS_P2;PMS_P1;PMS_P2;Temp;Humidity;BMP_temperature;BMP_pressure;BME280_temperature;BME280_humidity;BME280_pressure;Samples;Min_cycle;Max_cycle;Signal;HPM_P1;HPM_P2
2022/07/09 00:01:36;;;;;;;0.32;0.30;;;24.70;56.00;;;;;;6301525;28;20039;-45
2022/07/09 00:04:38;;;;;;;0.47;0.35;;;24.70;55.90;;;;;;6307506;28;20042;-44
2022/07/09 00:07:40;;;;;;;0.40;0.32;;;24.60;56.10;;;;;;6295958;28;20070;-42
2022/07/09 00:10:41;;;;;;;0.40;0.30;;;24.60;56.20;;;;;;6274112;28;20081;-43
2022/07/09 00:13:43;;;;;;;0.63;0.30;;;24.60;56.30;;;;;;6290183;28;20079;-45
2022/07/09 00:16:45;;;;;;;0.20;0.20;;;24.50;56.30;;;;;;6289959;28;20139;-45
2022/07/09 00:19:47;;;;;;;0.43;0.40;;;23.70;56.00;;;;;;6291244;28;20047;-44
2022/07/09 00:22:48;;;;;;;0.30;0.30;;;24.60;56.60;;;;;;6271479;28;20967;-45
2022/07/09 00:25:52;;;;;;;0.30;0.22;;;24.60;56.70;;;;;;6287742;28;20146;-43
2022/07/09 00:28:54;;;;;;;0.40;0.40;;;24.50;56.80;;;;;;6287923;28;20040;-45
2022/07/09 00:31:55;;;;;;;0.35;0.30;;;24.40;56.80;;;;;;6281714;28;20172;-45
2022/07/09 00:34:57;;;;;;;0.50;0.40;;;24.60;57.00;;;;;;6289999;28;20119;-44
2022/07/09 00:37:59;;;;;;;0.40;0.40;;;24.50;57.00;;;;;;6286003;28;20959;-43
2022/07/09 00:41:04;;;;;;;0.70;0.40;;;24.50;57.10;;;;;;6290451;28;20919;-47
2022/07/09 00:44:05;;;;;;;0.30;0.30;;;24.50;57.20;;;;;;6271361;28;20812;-43
2022/07/09 00:47:11;;;;;;;0.75;0.40;;;24.50;57.20;;;;;;6283154;28;20039;-46
2022/07/09 00:50:14;;;;;;;0.40;0.40;;;24.40;57.20;;;;;;6278067;28;20118;-42
2022/07/09 00:53:18;;;;;;;0.40;0.30;;;24.50;57.30;;;;;;6292437;28;20075;-42
2022/07/09 00:56:19;;;;;;;0.20;0.20;;;24.40;57.30;;;;;;6274938;28;20122;-42
2022/07/09 00:59:22;;;;;;;0.52;0.30;;;24.40;57.30;;;;;;6280183;28;20357;-45
2022/07/09 01:02:24;;;;;;;0.35;0.30;;;24.50;57.40;;;;;;6278300;28;20151;-41
2022/07/09 01:05:26;;;;;;;0.60;0.40;;;24.40;57.40;;;;;;6280650;28;20132;-44
2022/07/09 01:08:28;;;;;;;0.47;0.40;;;24.40;57.40;;;;;;6279291;28;20051;-46
2022/07/09 01:11:32;;;;;;;0.50;0.40;;;24.40;57.40;;;;;;6279572;28;20070;-42
2022/07/09 01:14:34;;;;;;;0.50;0.43;;;24.40;57.50;;;;;;6294151;28;20686;-46
2022/07/09 01:17:38;;;;;;;0.43;0.40;;;24.30;57.40;;;;;;6287096;28;20135;-44
2022/07/09 01:20:41;;;;;;;0.40;0.40;;;24.30;57.40;;;;;;6281158;28;20040;-44
2022/07/09 01:23:42;;;;;;;0.50;0.40;;;24.30;57.40;;;;;;6275939;28;22009;-43
2022/07/09 01:26:44;;;;;;;0.63;0.40;;;24.30;57.40;;;;;;6281863;28;20059;-44
2022/07/09 01:29:49;;;;;;;0.30;0.30;;;24.30;57.40;;;;;;6283330;28;20564;-46
2022/07/09 01:32:51;;;;;;;0.55;0.40;;;24.30;57.40;;;;;;6281061;28;20124;-43
2022/07/09 01:35:53;;;;;;;0.30;0.22;;;24.30;58.00;;;;;;6263639;28;20475;-45
2022/07/09 01:38:54;;;;;;;0.50;0.50;;;24.30;57.40;;;;;;6290041;28;20621;-41
2022/07/09 01:41:56;;;;;;;0.55;0.40;;;24.30;57.50;;;;;;6294325;28;20083;-44
2022/07/09 01:44:57;;;;;;;0.70;0.50;;;24.30;57.40;;;;;;6296910;28;20389;-45
2022/07/09 01:48:02;;;;;;;0.45;0.40;;;24.20;57.30;;;;;;6294003;28;20055;-42
2022/07/09 01:51:04;;;;;;;0.40;0.40;;;24.10;57.30;;;;;;6298206;28;20510;-45
2022/07/09 01:54:06;;;;;;;0.50;0.40;;;24.30;57.40;;;;;;6295760;28;20508;-44
2022/07/09 01:57:07;;;;;;;0.30;0.30;;;24.40;57.50;;;;;;6297463;28;20050;-43
2022/07/09 02:00:10;;;;;;;0.50;0.38;;;24.20;57.50;;;;;;6292420;28;20275;-48
2022/07/09 02:03:15;;;;;;;0.60;0.50;;;24.20;57.40;;;;;;6295660;28;20476;-44
2022/07/09 02:06:17;;;;;;;0.43;0.43;;;24.20;57.40;;;;;;6293038;28;20510;-44
2022/07/09 02:09:18;;;;;;;0.30;0.30;;;24.20;57.40;;;;;;6292969;28;20090;-43
2022/07/09 02:12:20;;;;;;;0.30;0.30;;;24.20;57.50;;;;;;6284021;28;20506;-43
2022/07/09 02:15:22;;;;;;;0.82;0.40;;;24.20;57.40;;;;;;6285124;28;20220;-45
2022/07/09 02:18:26;;;;;;;0.55;0.50;;;24.00;57.30;;;;;;6286487;28;20047;-42
2022/07/09 02:21:28;;;;;;;0.55;0.40;;;24.20;57.50;;;;;;6288396;28;20039;-43
2022/07/09 02:24:33;;;;;;;0.60;0.50;;;24.20;57.50;;;;;;6286059;28;20074;-44
2022/07/09 02:27:35;;;;;;;0.45;0.40;;;24.10;57.40;;;;;;6283646;28;20040;-42
2022/07/09 02:30:37;;;;;;;0.63;0.50;;;24.10;57.40;;;;;;6280319;28;20040;-46
2022/07/09 02:33:39;;;;;;;0.38;0.28;;;24.10;57.50;;;;;;6274455;28;20186;-43
2022/07/09 02:36:41;;;;;;;0.45;0.40;;;24.10;57.50;;;;;;6274537;28;20048;-46
2022/07/09 02:39:42;;;;;;;0.40;0.38;;;24.10;57.50;;;;;;6278778;28;20047;-43
2022/07/09 02:42:44;;;;;;;0.57;0.57;;;24.00;57.40;;;;;;6278215;28;20039;-43
2022/07/09 02:45:46;;;;;;;0.30;0.30;;;23.90;57.40;;;;;;6276621;28;20482;-43
2022/07/09 02:48:47;;;;;;;0.73;0.52;;;24.10;57.50;;;;;;6288835;28;20109;-45
2022/07/09 02:51:50;;;;;;;0.47;0.43;;;24.00;57.50;;;;;;6292717;28;20331;-45
2022/07/09 02:54:51;;;;;;;0.50;0.40;;;24.00;57.50;;;;;;6291442;28;21299;-45
2022/07/09 02:57:53;;;;;;;0.40;0.40;;;24.00;57.50;;;;;;6283988;28;20058;-42
2022/07/09 03:00:54;;;;;;;0.80;0.45;;;23.90;57.50;;;;;;6288119;28;20159;-44
2022/07/09 03:03:56;;;;;;;0.95;0.50;;;23.90;57.40;;;;;;6292261;28;20236;-45
2022/07/09 03:06:58;;;;;;;0.40;0.40;;;24.00;57.50;;;;;;6289884;28;20043;-45
2022/07/09 03:09:59;;;;;;;0.70;0.68;;;23.90;57.40;;;;;;6292731;28;20055;-43
2022/07/09 03:13:01;;;;;;;0.50;0.50;;;24.00;57.80;;;;;;6285738;28;20043;-43
2022/07/09 03:16:03;;;;;;;0.57;0.40;;;23.90;57.50;;;;;;6291439;28;20082;-43
2022/07/09 03:19:05;;;;;;;0.85;0.60;;;23.80;57.40;;;;;;6272246;28;20047;-43
2022/07/09 03:22:07;;;;;;;0.45;0.40;;;23.90;57.50;;;;;;6293232;28;20154;-43
2022/07/09 03:25:09;;;;;;;0.63;0.50;;;23.90;57.50;;;;;;6288474;28;20318;-43
2022/07/09 03:28:11;;;;;;;0.50;0.45;;;24.00;57.50;;;;;;6265318;28;20780;-47
2022/07/09 03:31:12;;;;;;;0.52;0.40;;;23.90;57.50;;;;;;6273043;28;20036;-44
2022/07/09 03:34:14;;;;;;;0.50;0.40;;;23.90;57.50;;;;;;6275703;28;20147;-45
2022/07/09 03:37:16;;;;;;;0.40;0.40;;;23.90;57.50;;;;;;6281940;28;20135;-43
2022/07/09 03:40:18;;;;;;;0.70;0.43;;;23.90;57.60;;;;;;6280393;28;20314;-45
2022/07/09 03:43:20;;;;;;;0.40;0.40;;;23.90;57.60;;;;;;6283547;28;20093;-46
2022/07/09 03:46:23;;;;;;;0.88;0.40;;;23.90;57.70;;;;;;6288494;28;20246;-45
2022/07/09 03:49:28;;;;;;;0.40;0.38;;;23.90;57.70;;;;;;6295185;28;20043;-43
2022/07/09 03:52:30;;;;;;;0.70;0.40;;;23.90;57.70;;;;;;6282472;28;20443;-46
2022/07/09 03:55:32;;;;;;;0.50;0.50;;;23.90;58.40;;;;;;6279611;28;20493;-43
2022/07/09 03:58:33;;;;;;;0.40;0.40;;;23.90;57.80;;;;;;6278720;28;20380;-43
2022/07/09 04:01:35;;;;;;;0.60;0.40;;;23.90;57.80;;;;;;6279610;28;20551;-45
2022/07/09 04:04:37;;;;;;;0.50;0.43;;;23.80;57.80;;;;;;6275834;28;20040;-48
2022/07/09 04:07:40;;;;;;;0.50;0.50;;;23.80;57.90;;;;;;6270450;28;20052;-47
2022/07/09 04:10:42;;;;;;;0.63;0.50;;;23.80;57.90;;;;;;6278750;28;20430;-43
2022/07/09 04:13:43;;;;;;;0.80;0.55;;;23.90;57.90;;;;;;6281811;28;20048;-45
2022/07/09 04:16:48;;;;;;;0.80;0.40;;;23.90;58.00;;;;;;6279469;28;20441;-45
2022/07/09 04:19:50;;;;;;;0.68;0.40;;;23.80;57.90;;;;;;6273683;28;20083;-43
2022/07/09 04:22:52;;;;;;;0.45;0.40;;;23.80;57.90;;;;;;6275542;28;20610;-45
2022/07/09 04:25:54;;;;;;;0.60;0.50;;;23.80;57.90;;;;;;6274286;28;20167;-45
2022/07/09 04:28:55;;;;;;;0.40;0.40;;;23.90;57.90;;;;;;6269067;28;20121;-42
2022/07/09 04:31:57;;;;;;;0.50;0.40;;;23.90;57.80;;;;;;6273543;28;20489;-43
2022/07/09 04:34:58;;;;;;;0.50;0.50;;;23.90;57.80;;;;;;6280298;28;20618;-48
2022/07/09 04:38:00;;;;;;;0.60;0.50;;;23.80;57.80;;;;;;6297366;28;20553;-43
2022/07/09 04:41:02;;;;;;;0.60;0.55;;;23.70;57.70;;;;;;6291182;28;20048;-42
2022/07/09 04:44:04;;;;;;;0.50;0.50;;;23.90;57.90;;;;;;6291736;28;20043;-43
2022/07/09 04:47:06;;;;;;;0.50;0.40;;;23.70;57.70;;;;;;6289973;28;20225;-44
2022/07/09 04:50:09;;;;;;;0.60;0.50;;;23.90;57.80;;;;;;6296497;28;20263;-44
2022/07/09 04:53:11;;;;;;;0.40;0.30;;;23.90;57.90;;;;;;6291234;28;20055;-44
2022/07/09 04:56:13;;;;;;;0.50;0.50;;;23.90;57.90;;;;;;6293553;28;20360;-41
2022/07/09 04:59:14;;;;;;;0.63;0.52;;;23.90;58.00;;;;;;6285606;28;20054;-45
2022/07/09 05:02:16;;;;;;;0.70;0.60;;;23.90;58.00;;;;;;6289959;28;20423;-42
2022/07/09 05:05:21;;;;;;;0.50;0.40;;;24.00;58.10;;;;;;6283617;28;20409;-42
2022/07/09 05:08:24;;;;;;;0.60;0.50;;;24.00;58.10;;;;;;6277954;28;20323;-44
2022/07/09 05:11:25;;;;;;;0.57;0.50;;;23.90;58.10;;;;;;6280183;28;20143;-49
2022/07/09 05:14:27;;;;;;;0.80;0.60;;;23.90;58.10;;;;;;6275278;28;20047;-43
2022/07/09 05:17:33;;;;;;;0.52;0.52;;;23.90;58.20;;;;;;6281095;28;20177;-43
2022/07/09 05:20:40;;;;;;;0.40;0.40;;;23.80;58.20;;;;;;6277696;28;20059;-47
2022/07/09 05:23:42;;;;;;;0.90;0.52;;;24.00;58.40;;;;;;6276827;28;20150;-43
2022/07/09 05:26:46;;;;;;;0.68;0.68;;;24.00;58.40;;;;;;6276065;28;20086;-43
2022/07/09 05:29:48;;;;;;;0.52;0.50;;;24.00;58.50;;;;;;6277577;28;20461;-44
2022/07/09 05:32:49;;;;;;;0.60;0.50;;;23.90;58.50;;;;;;6284002;28;20066;-45
2022/07/09 05:35:52;;;;;;;0.60;0.60;;;24.00;58.60;;;;;;6278102;28;20093;-47
2022/07/09 05:38:55;;;;;;;0.50;0.50;;;23.90;58.60;;;;;;6274037;28;21337;-41
2022/07/09 05:41:56;;;;;;;0.60;0.60;;;23.90;58.60;;;;;;6274370;28;20135;-49
2022/07/09 05:44:58;;;;;;;1.13;0.60;;;24.00;58.70;;;;;;6279536;28;20090;-44
2022/07/09 05:48:00;;;;;;;1.23;0.82;;;24.00;58.70;;;;;;6292239;28;20046;-49
2022/07/09 05:51:01;;;;;;;0.82;0.55;;;23.90;58.70;;;;;;6287666;28;20048;-45
2022/07/09 05:54:03;;;;;;;0.40;0.40;;;24.00;58.70;;;;;;6281051;28;20039;-46
2022/07/09 05:57:05;;;;;;;0.40;0.40;;;24.00;58.70;;;;;;6280746;28;20583;-44
2022/07/09 06:00:11;;;;;;;0.70;0.50;;;24.00;58.80;;;;;;6277262;28;20713;-42
2022/07/09 06:03:13;;;;;;;0.43;0.40;;;24.00;58.80;;;;;;6273869;28;20626;-45
2022/07/09 06:06:14;;;;;;;1.02;0.50;;;24.00;58.80;;;;;;6276592;28;20154;-42
2022/07/09 06:09:16;;;;;;;1.10;0.70;;;24.00;58.80;;;;;;6272479;28;20040;-47
2022/07/09 06:12:17;;;;;;;0.82;0.65;;;24.00;58.90;;;;;;6273610;28;20105;-41
2022/07/09 06:15:19;;;;;;;0.60;0.60;;;24.00;58.80;;;;;;6278437;28;20036;-46
2022/07/09 06:18:21;;;;;;;0.73;0.60;;;24.00;58.80;;;;;;6290039;28;20403;-46
2022/07/09 06:21:23;;;;;;;0.70;0.50;;;24.00;58.80;;;;;;6286284;28;20636;-46
2022/07/09 06:24:26;;;;;;;0.50;0.40;;;24.00;58.70;;;;;;6285380;28;20040;-47
2022/07/09 06:27:27;;;;;;;0.60;0.55;;;24.00;58.80;;;;;;6278749;28;20159;-50
2022/07/09 06:30:29;;;;;;;1.42;0.55;;;24.10;58.70;;;;;;6271082;28;20791;-44
2022/07/09 06:33:31;;;;;;;0.63;0.50;;;24.10;58.70;;;;;;6271109;28;20362;-43
2022/07/09 06:36:32;;;;;;;0.70;0.68;;;24.00;58.60;;;;;;6269219;28;20043;-45
2022/07/09 06:42:46;;;;;;;0.60;0.50;;;24.20;58.70;;;;;;6269974;28;20502;-45
2022/07/09 06:46:06;;;;;;;0.52;0.47;;;24.10;58.60;;;;;;6274346;28;20150;-45
2022/07/09 06:49:07;;;;;;;0.60;0.50;;;24.20;58.70;;;;;;6276741;28;20103;-43
2022/07/09 06:52:12;;;;;;;0.60;0.52;;;24.20;58.80;;;;;;6285663;28;20110;-47
2022/07/09 06:55:15;;;;;;;0.70;0.50;;;24.10;58.70;;;;;;6274104;28;20908;-47
2022/07/09 06:58:16;;;;;;;0.52;0.43;;;24.20;58.80;;;;;;6271706;28;20376;-46
2022/07/09 07:01:18;;;;;;;0.55;0.40;;;24.40;59.50;;;;;;6276237;28;20036;-44
2022/07/09 07:04:20;;;;;;;0.70;0.60;;;24.00;58.60;;;;;;6277953;28;21592;-45
2022/07/09 07:07:21;;;;;;;0.60;0.50;;;24.00;58.70;;;;;;6283357;28;20140;-43
2022/07/09 07:10:23;;;;;;;0.50;0.50;;;24.20;58.80;;;;;;6279099;28;20074;-46
2022/07/09 07:13:25;;;;;;;0.70;0.50;;;24.20;58.80;;;;;;6282320;28;20476;-43
2022/07/09 07:16:26;;;;;;;0.70;0.50;;;24.20;58.70;;;;;;6290602;28;20135;-44
2022/07/09 07:19:28;;;;;;;0.52;0.50;;;24.30;58.70;;;;;;6293836;28;20116;-46
2022/07/09 07:22:30;;;;;;;0.80;0.55;;;24.60;59.00;;;;;;6285573;28;20122;-45
2022/07/09 07:25:32;;;;;;;0.70;0.55;;;24.20;58.70;;;;;;6284708;28;20106;-42
2022/07/09 07:28:34;;;;;;;0.63;0.52;;;24.20;58.70;;;;;;6283936;28;20102;-45
2022/07/09 07:31:36;;;;;;;0.50;0.50;;;24.30;58.70;;;;;;6249380;28;20054;-44
2022/07/09 07:34:37;;;;;;;0.60;0.60;;;24.30;58.70;;;;;;6285357;28;20035;-44
2022/07/09 07:37:39;;;;;;;0.60;0.60;;;24.20;58.70;;;;;;6283510;28;20932;-45
2022/07/09 07:40:42;;;;;;;0.70;0.60;;;24.20;58.70;;;;;;6281771;28;20055;-47
2022/07/09 07:43:43;;;;;;;0.55;0.50;;;24.30;58.90;;;;;;6297218;28;20050;-47
2022/07/09 07:46:45;;;;;;;0.55;0.40;;;24.50;58.90;;;;;;6291599;28;20987;-43
2022/07/09 07:49:46;;;;;;;0.40;0.32;;;24.30;58.80;;;;;;6281615;28;20043;-44
2022/07/09 07:52:49;;;;;;;0.43;0.43;;;24.30;58.80;;;;;;6278422;28;20152;-43
2022/07/09 07:55:51;;;;;;;0.50;0.47;;;24.20;58.70;;;;;;6265520;28;20117;-44
2022/07/09 07:58:53;;;;;;;0.55;0.50;;;24.30;58.80;;;;;;6288841;28;20046;-45
2022/07/09 08:01:54;;;;;;;0.50;0.50;;;24.30;58.80;;;;;;6282483;28;20170;-43
2022/07/09 08:04:56;;;;;;;0.50;0.50;;;24.30;58.80;;;;;;6280709;28;20047;-46
2022/07/09 08:08:01;;;;;;;0.50;0.50;;;24.30;58.80;;;;;;6279531;28;20109;-45
2022/07/09 08:11:03;;;;;;;0.57;0.43;;;24.30;58.90;;;;;;6285822;28;20050;-45
2022/07/09 08:14:06;;;;;;;0.63;0.50;;;24.50;58.90;;;;;;6294519;28;20397;-44
2022/07/09 08:17:08;;;;;;;0.50;0.50;;;24.30;58.90;;;;;;6284513;28;20040;-46
2022/07/09 08:20:10;;;;;;;0.80;0.50;;;24.40;59.00;;;;;;6266244;28;20086;-42
2022/07/09 08:23:12;;;;;;;0.40;0.40;;;24.70;59.10;;;;;;6284561;28;20771;-44
2022/07/09 08:26:18;;;;;;;0.57;0.57;;;24.50;59.00;;;;;;6281318;28;21471;-46
2022/07/09 08:29:20;;;;;;;0.63;0.63;;;24.40;58.90;;;;;;6262072;28;20154;-45
2022/07/09 08:32:22;;;;;;;0.50;0.50;;;24.40;58.90;;;;;;6280700;28;20270;-44
2022/07/09 08:35:25;;;;;;;0.55;0.43;;;24.50;58.90;;;;;;6276670;28;20416;-46
2022/07/09 08:38:27;;;;;;;0.50;0.47;;;24.40;58.90;;;;;;6286291;28;20042;-45
2022/07/09 08:41:29;;;;;;;0.47;0.45;;;24.40;58.80;;;;;;6289973;28;20077;-41
2022/07/09 08:44:35;;;;;;;0.40;0.40;;;24.40;58.80;;;;;;6289812;28;20643;-45
2022/07/09 08:47:38;;;;;;;0.43;0.40;;;24.40;58.90;;;;;;6278473;28;20312;-45
2022/07/09 08:50:41;;;;;;;0.57;0.50;;;24.50;58.80;;;;;;6278492;28;20043;-43
2022/07/09 08:53:44;;;;;;;0.77;0.50;;;24.50;59.50;;;;;;6280249;28;20801;-42
2022/07/09 08:56:46;;;;;;;0.60;0.60;;;24.50;58.80;;;;;;6256700;28;20044;-44
2022/07/09 08:59:48;;;;;;;0.85;0.68;;;24.40;58.70;;;;;;6279787;28;20040;-45
2022/07/09 09:02:49;;;;;;;0.57;0.57;;;24.50;58.80;;;;;;6282474;28;20529;-43
2022/07/09 09:06:08;;;;;;;0.50;0.50;;;24.50;58.80;;;;;;6276338;28;20058;-48
2022/07/09 09:09:11;;;;;;;0.70;0.60;;;24.60;58.90;;;;;;6272984;28;20130;-45
2022/07/09 09:12:14;;;;;;;0.50;0.50;;;24.60;58.90;;;;;;6281567;28;20431;-46
2022/07/09 09:15:18;;;;;;;0.82;0.60;;;24.60;58.80;;;;;;6261565;28;20048;-47
2022/07/09 09:18:23;;;;;;;0.75;0.68;;;24.70;58.90;;;;;;6283426;28;20575;-43
2022/07/09 09:21:25;;;;;;;0.73;0.70;;;24.60;58.80;;;;;;6277312;28;20048;-44
2022/07/09 09:24:31;;;;;;;0.50;0.50;;;24.60;58.70;;;;;;6275738;28;20163;-45
2022/07/09 09:27:33;;;;;;;0.60;0.60;;;24.60;58.50;;;;;;6260352;28;20290;-44
2022/07/09 09:30:42;;;;;;;0.73;0.60;;;24.60;58.40;;;;;;6267451;28;20043;-47
2022/07/09 09:33:43;;;;;;;0.75;0.40;;;24.60;58.30;;;;;;6271373;28;20048;-44
2022/07/09 09:36:47;;;;;;;0.57;0.50;;;24.60;58.20;;;;;;6287096;28;20394;-44
2022/07/09 09:39:51;;;;;;;0.77;0.50;;;24.50;58.00;;;;;;6272039;28;20155;-42
2022/07/09 09:42:54;;;;;;;0.38;0.30;;;24.70;58.00;;;;;;6266742;28;20369;-46
2022/07/09 09:46:02;;;;;;;0.60;0.60;;;24.70;58.00;;;;;;6268252;28;20072;-43
2022/07/09 09:49:07;;;;;;;0.63;0.50;;;24.60;57.80;;;;;;6274244;28;20485;-45
2022/07/09 09:52:10;;;;;;;0.60;0.40;;;24.60;57.70;;;;;;6274496;28;20083;-43
2022/07/09 09:55:16;;;;;;;0.50;0.50;;;24.60;57.50;;;;;;6259386;28;20564;-49
2022/07/09 09:58:18;;;;;;;0.68;0.55;;;24.60;57.50;;;;;;6257820;28;20511;-46
2022/07/09 10:01:20;;;;;;;0.30;0.30;;;24.70;57.50;;;;;;6268593;28;20397;-45
2022/07/09 10:04:22;;;;;;;0.38;0.38;;;24.70;57.50;;;;;;6279762;28;20113;-43
2022/07/09 10:07:23;;;;;;;0.38;0.38;;;24.70;57.40;;;;;;6288188;28;20092;-45
2022/07/09 10:10:26;;;;;;;0.32;0.32;;;24.70;57.40;;;;;;6290157;28;20150;-48
2022/07/09 10:13:28;;;;;;;0.40;0.30;;;24.70;57.30;;;;;;6285603;28;20289;-43
2022/07/09 10:16:38;;;;;;;0.28;0.20;;;24.70;57.20;;;;;;6291089;28;20764;-42
2022/07/09 10:19:51;;;;;;;0.43;0.40;;;24.60;57.10;;;;;;6261799;28;20051;-45
2022/07/09 10:22:55;;;;;;;0.40;0.40;;;24.70;57.10;;;;;;6275331;28;20643;-45
2022/07/09 10:25:57;;;;;;;0.30;0.30;;;24.70;57.40;;;;;;6241746;28;20083;-44
2022/07/09 10:28:59;;;;;;;0.50;0.40;;;24.90;57.00;;;;;;6279037;28;21122;-45
2022/07/09 10:32:01;;;;;;;0.45;0.30;;;24.70;56.80;;;;;;6278807;28;20075;-43
2022/07/09 10:35:05;;;;;;;0.30;0.30;;;24.60;56.60;;;;;;6280847;28;20152;-44
2022/07/09 10:38:06;;;;;;;0.43;0.35;;;24.80;56.60;;;;;;6244140;28;20081;-43
2022/07/09 10:41:08;;;;;;;0.60;0.40;;;24.70;56.50;;;;;;6263804;28;20094;-45
2022/07/09 10:44:10;;;;;;;0.40;0.40;;;24.70;56.40;;;;;;6293581;28;20379;-45
2022/07/09 10:47:12;;;;;;;0.38;0.32;;;24.70;56.30;;;;;;6280749;28;20544;-42
2022/07/09 10:50:13;;;;;;;0.30;0.30;;;24.70;56.30;;;;;;6278893;28;20051;-43
2022/07/09 10:53:17;;;;;;;0.40;0.40;;;24.80;56.20;;;;;;6280619;28;20051;-46
2022/07/09 10:56:19;;;;;;;0.30;0.30;;;24.70;56.00;;;;;;6280450;28;20082;-42
2022/07/09 10:59:25;;;;;;;0.32;0.32;;;24.60;55.90;;;;;;6244354;28;20115;-44
2022/07/09 11:02:26;;;;;;;0.40;0.38;;;24.80;55.80;;;;;;6283630;28;21227;-44
2022/07/09 11:05:29;;;;;;;0.30;0.30;;;24.80;55.70;;;;;;6285512;28;20036;-46
2022/07/09 11:08:32;;;;;;;0.57;0.40;;;24.80;55.60;;;;;;6267892;28;20054;-47
2022/07/09 11:11:34;;;;;;;0.50;0.47;;;24.80;55.50;;;;;;6285301;28;20105;-46
2022/07/09 11:14:44;;;;;;;0.17;0.17;;;24.80;55.30;;;;;;6289752;28;20416;-45
2022/07/09 11:17:54;;;;;;;0.38;0.30;;;24.80;55.10;;;;;;6295462;28;20063;-45
2022/07/09 11:20:56;;;;;;;0.37;0.30;;;24.80;55.00;;;;;;6289436;28;20043;-42
2022/07/09 11:23:58;;;;;;;0.40;0.40;;;25.00;55.00;;;;;;6271501;28;20321;-46
2022/07/09 11:27:02;;;;;;;0.35;0.30;;;24.80;54.80;;;;;;6287753;28;20071;-44
2022/07/09 11:30:12;;;;;;;0.60;0.30;;;24.80;54.60;;;;;;6273250;28;20307;-42
2022/07/09 11:33:14;;;;;;;0.40;0.40;;;24.80;54.50;;;;;;6262415;28;20033;-43
2022/07/09 11:36:16;;;;;;;0.30;0.30;;;24.90;54.40;;;;;;6279550;28;20043;-43
2022/07/09 11:39:27;;;;;;;0.20;0.20;;;24.80;54.30;;;;;;6277990;28;20645;-47
2022/07/09 11:42:29;;;;;;;0.30;0.30;;;24.80;54.10;;;;;;6275512;28;20828;-45
2022/07/09 11:45:31;;;;;;;0.40;0.40;;;24.70;54.00;;;;;;6276969;28;20048;-47
2022/07/09 11:48:33;;;;;;;0.32;0.32;;;24.80;53.90;;;;;;6272855;28;20096;-48
2022/07/09 11:51:35;;;;;;;0.28;0.28;;;24.80;53.80;;;;;;6279350;28;20036;-43
2022/07/09 11:54:36;;;;;;;0.30;0.22;;;24.80;53.70;;;;;;6277424;28;20046;-45
2022/07/09 11:57:38;;;;;;;0.30;0.30;;;24.80;53.60;;;;;;6278365;28;20290;-47
2022/07/09 12:00:41;;;;;;;0.40;0.40;;;24.90;53.50;;;;;;6255516;28;20112;-44
2022/07/09 12:03:47;;;;;;;0.30;0.30;;;24.80;53.40;;;;;;6277168;28;20875;-45
2022/07/09 12:06:50;;;;;;;0.45;0.45;;;24.80;53.30;;;;;;6262926;28;20090;-45
2022/07/09 12:10:00;;;;;;;0.40;0.38;;;24.90;53.30;;;;;;6279380;28;20521;-42
2022/07/09 12:13:03;;;;;;;0.40;0.40;;;24.70;53.10;;;;;;6243383;28;20517;-45
2022/07/09 12:16:05;;;;;;;0.40;0.40;;;24.70;53.00;;;;;;6240757;28;20055;-48
2022/07/09 12:19:07;;;;;;;0.50;0.40;;;24.80;53.00;;;;;;6277748;28;20390;-43
2022/07/09 12:22:09;;;;;;;0.30;0.30;;;24.80;52.90;;;;;;6271091;28;20342;-42
2022/07/09 12:25:10;;;;;;;1.33;0.40;;;24.80;52.80;;;;;;6273898;28;20478;-45
2022/07/09 12:28:12;;;;;;;0.30;0.30;;;24.80;52.70;;;;;;6280371;28;20154;-42
2022/07/09 12:31:14;;;;;;;0.20;0.20;;;24.80;52.70;;;;;;6287957;28;20098;-44
2022/07/09 12:34:16;;;;;;;0.52;0.40;;;24.90;52.70;;;;;;6283243;28;20038;-43
2022/07/09 12:37:17;;;;;;;0.47;0.30;;;24.90;52.60;;;;;;6281988;28;20437;-48
2022/07/09 12:40:19;;;;;;;0.43;0.40;;;24.80;52.50;;;;;;6283543;28;20258;-44
2022/07/09 12:43:20;;;;;;;0.30;0.30;;;24.80;52.50;;;;;;6273961;28;20038;-42
2022/07/09 12:46:23;;;;;;;0.40;0.35;;;24.90;52.40;;;;;;6266522;28;20311;-47
2022/07/09 12:49:24;;;;;;;0.40;0.40;;;24.90;52.30;;;;;;6274460;28;20056;-42
2022/07/09 12:52:26;;;;;;;0.30;0.30;;;24.70;52.10;;;;;;6271540;28;20424;-48
2022/07/09 12:55:28;;;;;;;0.43;0.30;;;24.80;52.60;;;;;;6265710;28;20036;-44
2022/07/09 12:58:45;;;;;;;0.40;0.40;;;24.80;52.00;;;;;;6275096;28;20486;-44
2022/07/09 13:01:47;;;;;;;0.40;0.40;;;24.90;52.00;;;;;;6273987;28;20090;-42
2022/07/09 13:04:49;;;;;;;0.40;0.40;;;24.80;51.90;;;;;;6281076;28;20394;-43
2022/07/09 13:07:51;;;;;;;0.30;0.30;;;24.90;51.90;;;;;;6272029;28;20457;-46
2022/07/09 13:10:52;;;;;;;0.40;0.30;;;24.80;51.80;;;;;;6271121;28;20072;-47
2022/07/09 13:13:54;;;;;;;0.30;0.30;;;24.80;51.60;;;;;;6272277;28;20238;-47
2022/07/09 13:16:56;;;;;;;0.40;0.40;;;24.80;51.60;;;;;;6274670;28;20054;-45
2022/07/09 13:20:18;;;;;;;0.40;0.35;;;24.80;51.60;;;;;;6257550;28;20278;-44
2022/07/09 13:23:20;;;;;;;0.40;0.38;;;24.80;51.50;;;;;;6273656;28;20320;-42
2022/07/09 13:26:22;;;;;;;0.25;0.20;;;24.80;51.40;;;;;;6276425;28;20356;-43
2022/07/09 13:29:23;;;;;;;0.40;0.25;;;24.90;51.40;;;;;;6265723;28;20472;-48
2022/07/09 13:32:26;;;;;;;0.30;0.30;;;24.80;51.20;;;;;;6272203;28;20494;-46
2022/07/09 13:35:28;;;;;;;0.50;0.40;;;24.80;51.10;;;;;;6273743;28;20566;-42
2022/07/09 13:38:31;;;;;;;0.30;0.30;;;24.80;51.00;;;;;;6276169;28;20970;-45
2022/07/09 13:41:32;;;;;;;0.22;0.22;;;24.80;51.00;;;;;;6275602;28;21390;-44
2022/07/09 13:44:38;;;;;;;0.47;0.40;;;24.70;51.00;;;;;;6277828;28;20610;-43
2022/07/09 13:47:40;;;;;;;0.45;0.38;;;24.80;51.00;;;;;;6273016;28;20074;-41
2022/07/09 13:50:42;;;;;;;0.30;0.25;;;24.80;50.90;;;;;;6273404;28;20071;-44
2022/07/09 13:53:43;;;;;;;0.30;0.30;;;24.70;51.00;;;;;;6271743;28;20071;-45
2022/07/09 13:56:45;;;;;;;0.40;0.30;;;24.80;50.90;;;;;;6269764;28;20993;-42
2022/07/09 13:59:50;;;;;;;0.30;0.30;;;24.70;50.80;;;;;;6268580;28;20377;-43
2022/07/09 14:02:52;;;;;;;0.30;0.30;;;24.80;50.90;;;;;;6270419;28;20415;-48
2022/07/09 14:05:53;;;;;;;0.50;0.40;;;24.90;51.00;;;;;;6276564;28;20126;-43
2022/07/09 14:08:55;;;;;;;0.40;0.30;;;24.80;51.00;;;;;;6276449;28;20367;-44
2022/07/09 14:11:57;;;;;;;0.50;0.40;;;24.80;51.10;;;;;;6288920;28;20261;-43
2022/07/09 14:14:59;;;;;;;0.32;0.32;;;24.60;51.10;;;;;;6280087;28;21045;-42
2022/07/09 14:18:02;;;;;;;0.45;0.45;;;24.80;51.30;;;;;;6284205;28;20310;-43
2022/07/09 14:21:03;;;;;;;0.40;0.40;;;24.70;51.30;;;;;;6281942;28;20575;-42
2022/07/09 14:24:05;;;;;;;0.40;0.40;;;24.70;51.40;;;;;;6285365;28;20563;-44
2022/07/09 14:27:07;;;;;;;0.50;0.40;;;24.80;51.60;;;;;;6267175;28;20661;-44
2022/07/09 14:30:12;;;;;;;0.40;0.40;;;24.80;51.90;;;;;;6272448;28;20048;-43
2022/07/09 14:33:15;;;;;;;0.50;0.50;;;24.80;52.10;;;;;;6261362;28;20504;-43
2022/07/09 14:36:16;;;;;;;0.47;0.40;;;24.80;52.20;;;;;;6251215;28;21013;-46
2022/07/09 14:39:21;;;;;;;0.50;0.47;;;24.70;52.40;;;;;;6255361;28;20377;-44
2022/07/09 14:42:23;;;;;;;0.55;0.50;;;24.80;52.70;;;;;;6261588;28;20152;-43
2022/07/09 14:45:25;;;;;;;0.65;0.52;;;24.80;52.80;;;;;;6253665;28;20580;-43
2022/07/09 14:48:27;;;;;;;0.50;0.50;;;24.80;53.00;;;;;;6252335;28;20090;-45
2022/07/09 14:51:29;;;;;;;0.50;0.50;;;24.90;53.20;;;;;;6250775;28;20919;-44
2022/07/09 14:54:31;;;;;;;0.68;0.60;;;24.90;53.20;;;;;;6252408;28;20096;-44
2022/07/09 14:57:32;;;;;;;0.30;0.30;;;24.90;53.30;;;;;;6254459;28;20408;-45
2022/07/09 15:00:34;;;;;;;0.47;0.47;;;24.90;53.20;;;;;;6252425;28;20040;-45
2022/07/09 15:03:36;;;;;;;0.57;0.57;;;24.90;53.20;;;;;;6249634;28;20172;-45
2022/07/09 15:06:41;;;;;;;0.70;0.50;;;24.90;53.10;;;;;;6256794;28;20844;-44
2022/07/09 15:09:46;;;;;;;0.40;0.40;;;24.90;53.00;;;;;;6257114;28;20087;-42
2022/07/09 15:12:47;;;;;;;0.77;0.50;;;24.90;53.20;;;;;;6247660;28;20098;-44
2022/07/09 15:15:49;;;;;;;0.40;0.40;;;24.80;53.20;;;;;;6251056;28;20519;-46
2022/07/09 15:18:51;;;;;;;0.30;0.30;;;24.80;53.30;;;;;;6250346;28;20056;-44
2022/07/09 15:21:53;;;;;;;0.50;0.43;;;24.90;53.40;;;;;;6252860;28;20047;-44
2022/07/09 15:24:55;;;;;;;0.32;0.30;;;24.70;53.30;;;;;;6249620;28;20096;-45
2022/07/09 15:27:57;;;;;;;0.50;0.40;;;24.90;53.50;;;;;;6249831;28;20305;-45
2022/07/09 15:31:02;;;;;;;0.40;0.40;;;24.90;53.50;;;;;;6249505;28;20142;-43
2022/07/09 15:34:05;;;;;;;0.40;0.40;;;24.90;53.50;;;;;;6251699;28;20089;-46
2022/07/09 15:37:07;;;;;;;0.50;0.38;;;24.90;53.60;;;;;;6249971;28;20465;-44
2022/07/09 15:40:10;;;;;;;0.47;0.47;;;24.90;53.60;;;;;;6255602;28;21231;-42
2022/07/09 15:43:12;;;;;;;0.38;0.30;;;24.90;53.60;;;;;;6254262;28;20135;-44
2022/07/09 15:46:13;;;;;;;0.47;0.40;;;24.90;53.60;;;;;;6249462;28;20560;-43
2022/07/09 15:49:16;;;;;;;0.40;0.40;;;24.90;53.50;;;;;;6249350;28;20072;-43
2022/07/09 15:52:18;;;;;;;0.40;0.40;;;24.90;53.50;;;;;;6256453;28;20963;-43
2022/07/09 15:55:19;;;;;;;0.40;0.40;;;25.00;53.60;;;;;;6260463;28;20036;-44